createdAt,value
2022-08-03T20:21:33.494Z,95553.00
2022-08-03T20:21:37.787Z,95556.00
2022-08-03T20:21:38.570Z,95557.00
2022-08-03T20:21:38.934Z,95556.00
2022-08-03T20:21:44.205Z,95554.00
2022-08-03T20:21:44.699Z,95554.00
2022-08-03T20:21:45.115Z,95553.00
2022-08-03T20:24:52.581Z,95554.00
2022-08-03T20:24:53.090Z,95555.00
2022-08-03T20:24:53.576Z,95555.00
2022-08-03T20:24:54.333Z,95555.00
2022-08-03T20:24:54.766Z,95556.00
2022-08-03T20:24:55.249Z,95557.00
2022-08-03T20:24:58.115Z,95557.00
2022-08-03T20:25:07.792Z,95554.00
2022-08-03T20:25:21.089Z,95555.00
2022-08-03T20:25:38.753Z,95553.00
2022-08-03T20:25:39.440Z,95552.00
2022-08-03T20:25:57.075Z,95554.00
2022-08-03T20:25:58.436Z,95557.00
2022-08-03T20:26:07.405Z,95553.00
2022-08-03T20:26:17.548Z,95553.00
2022-08-03T20:26:27.685Z,95553.00
2022-08-03T20:26:37.623Z,95551.00
2022-08-03T20:26:47.350Z,95552.00
2022-08-03T20:26:57.410Z,95551.00
2022-08-03T20:27:07.808Z,95553.00
2022-08-03T20:27:17.629Z,95553.00
2022-08-03T20:27:30.101Z,95553.00
2022-08-03T20:28:06.890Z,95551.00
2022-08-03T20:28:08.056Z,95555.00
2022-08-03T20:28:13.921Z,95551.00
2022-08-03T20:28:17.524Z,95551.00
2022-08-03T20:28:27.320Z,95554.00
2022-08-03T20:28:50.078Z,95553.00
2022-08-03T20:28:50.472Z,95554.00
2022-08-03T20:28:57.690Z,95552.00
2022-08-03T20:29:10.072Z,95554.00
2022-08-03T20:29:17.398Z,95554.00
2022-08-03T20:29:31.471Z,95552.00
2022-08-03T20:29:42.767Z,95551.00
2022-08-03T20:30:06.355Z,95553.00
2022-08-03T20:30:06.600Z,95552.00
2022-08-03T20:30:08.083Z,95549.00
2022-08-03T20:30:17.637Z,95553.00
2022-08-03T20:30:27.523Z,95553.00
2022-08-03T20:30:37.313Z,95551.00
2022-08-03T20:30:47.719Z,95552.00
2022-08-03T20:30:57.510Z,95546.00
2022-08-03T20:31:07.577Z,95550.00
2022-08-03T20:31:17.564Z,95549.00
2022-08-03T20:31:32.491Z,95553.00
2022-08-03T20:31:37.338Z,95549.00
2022-08-03T20:31:47.401Z,95551.00
2022-08-03T20:31:57.484Z,95555.00
2022-08-03T20:32:07.403Z,95548.00
2022-08-03T20:32:17.424Z,95550.00
2022-08-03T20:32:27.654Z,95551.00
2022-08-03T20:33:07.816Z,95552.00
2022-08-03T20:33:08.285Z,95550.00
2022-08-03T20:33:09.298Z,95547.00
2022-08-03T20:33:09.729Z,95551.00
2022-08-03T20:33:18.614Z,95551.00
2022-08-03T20:33:34.597Z,95552.00
2022-08-03T20:33:46.572Z,95552.00
2022-08-03T20:33:49.063Z,95553.00
2022-08-03T20:33:57.433Z,95548.00
2022-08-03T20:34:07.408Z,95550.00
2022-08-03T20:34:17.634Z,95550.00
2022-08-03T20:34:27.412Z,95553.00
2022-08-03T20:34:37.540Z,95551.00
2022-08-03T20:34:49.411Z,95553.00
2022-08-03T20:34:57.368Z,95552.00
2022-08-03T20:35:10.020Z,95551.00
2022-08-03T20:35:17.377Z,95551.00
2022-08-03T20:35:27.317Z,95552.00
2022-08-03T20:35:37.400Z,95555.00
2022-08-03T20:35:48.929Z,95552.00
2022-08-03T20:35:57.461Z,95553.00
2022-08-03T20:36:07.626Z,95550.00
2022-08-03T20:36:17.872Z,95551.00
2022-08-03T20:36:27.575Z,95554.00
2022-08-03T20:36:38.227Z,95554.00
2022-08-03T20:36:47.449Z,95554.00
2022-08-03T20:36:57.410Z,95550.00
2022-08-03T20:37:07.370Z,95552.00
2022-08-03T20:37:17.458Z,95553.00
2022-08-03T20:37:27.495Z,95553.00
2022-08-03T20:37:37.604Z,95551.00
2022-08-03T20:37:47.626Z,95556.00
2022-08-03T20:37:57.540Z,95554.00
2022-08-03T20:38:07.570Z,95553.00
2022-08-03T20:38:17.393Z,95552.00
2022-08-03T20:38:27.543Z,95552.00
2022-08-03T20:38:43.646Z,95553.00
2022-08-03T20:38:48.170Z,95552.00
2022-08-03T20:38:58.047Z,95550.00
2022-08-03T20:39:17.458Z,95550.00
2022-08-03T20:39:27.379Z,95553.00
2022-08-03T20:39:37.545Z,95551.00
2022-08-03T20:39:49.392Z,95552.00
2022-08-03T20:39:57.644Z,95551.00
2022-08-03T20:40:07.424Z,95548.00
2022-08-03T20:40:17.439Z,95551.00
2022-08-03T20:40:27.658Z,95554.00
2022-08-03T20:40:38.039Z,95551.00
2022-08-03T20:40:47.409Z,95554.00
2022-08-03T20:40:59.101Z,95553.00
2022-08-03T20:41:07.402Z,95549.00
2022-08-03T20:41:17.457Z,95551.00
2022-08-03T20:41:27.458Z,95553.00
2022-08-03T20:41:37.641Z,95548.00
2022-08-03T20:41:47.334Z,95551.00
2022-08-03T20:41:57.526Z,95555.00
2022-08-03T20:42:07.357Z,95551.00
2022-08-03T20:42:21.625Z,95550.00
2022-08-03T20:42:27.556Z,95552.00
2022-08-03T20:42:37.543Z,95551.00
2022-08-03T20:42:47.439Z,95549.00
2022-08-03T20:42:57.493Z,95550.00
2022-08-03T20:43:07.329Z,95550.00
2022-08-03T20:43:19.952Z,95551.00
2022-08-03T20:43:27.538Z,95550.00
2022-08-03T20:43:37.418Z,95548.00
2022-08-03T20:43:47.407Z,95549.00
2022-08-03T20:43:57.475Z,95547.00
2022-08-03T20:44:07.475Z,95548.00
2022-08-03T20:44:17.359Z,95552.00
2022-08-03T20:44:27.397Z,95549.00
2022-08-03T20:44:38.685Z,95551.00
2022-08-03T20:44:47.436Z,95550.00
2022-08-03T20:45:04.708Z,95550.00
2022-08-03T20:45:15.198Z,95549.00
2022-08-03T20:45:58.485Z,95548.00
2022-08-03T20:45:59.884Z,95551.00
2022-08-03T20:46:00.599Z,95550.00
2022-08-03T20:46:00.709Z,95549.00
2022-08-03T20:46:30.862Z,95549.00
2022-08-03T20:46:31.781Z,95548.00
2022-08-03T20:46:35.294Z,95547.00
2022-08-03T20:46:53.124Z,95544.00
2022-08-03T20:46:54.968Z,95544.00
2022-08-03T20:47:00.723Z,95549.00
2022-08-03T20:47:07.340Z,95549.00
2022-08-03T20:47:23.953Z,95547.00
2022-08-03T20:47:30.006Z,95544.00
2022-08-03T20:47:50.226Z,95549.00
2022-08-03T20:47:50.544Z,95548.00
2022-08-03T20:47:57.595Z,95549.00
2022-08-03T20:48:07.641Z,95547.00
2022-08-03T20:48:17.580Z,95548.00
2022-08-03T20:48:27.555Z,95550.00
2022-08-03T20:48:37.381Z,95547.00
2022-08-03T20:48:48.617Z,95547.00
2022-08-03T20:48:58.768Z,95554.00
2022-08-03T20:49:07.663Z,95552.00
2022-08-03T20:49:17.676Z,95549.00
2022-08-03T20:49:27.735Z,95551.00
2022-08-03T20:49:44.023Z,95550.00
2022-08-03T20:49:47.935Z,95551.00
2022-08-03T20:49:57.413Z,95550.00
2022-08-03T20:50:07.528Z,95550.00
2022-08-03T20:50:17.637Z,95551.00
2022-08-03T20:50:27.379Z,95553.00
2022-08-03T20:50:37.649Z,95549.00
2022-08-03T20:50:47.385Z,95550.00
2022-08-03T20:50:57.628Z,95549.00
2022-08-03T20:51:19.779Z,95547.00
2022-08-03T20:51:20.096Z,95545.00
2022-08-03T20:51:49.793Z,95549.00
2022-08-03T20:51:50.263Z,95547.00
2022-08-03T20:51:50.396Z,95548.00
2022-08-03T20:51:57.552Z,95549.00
2022-08-03T20:52:07.631Z,95550.00
2022-08-03T20:52:18.391Z,95548.00
2022-08-03T20:52:27.536Z,95553.00
2022-08-03T20:52:43.984Z,95548.00
2022-08-03T20:52:49.785Z,95550.00
2022-08-03T20:52:57.409Z,95549.00
2022-08-03T20:53:07.361Z,95546.00
2022-08-03T20:53:31.122Z,95550.00
2022-08-03T20:53:57.176Z,95552.00
2022-08-03T20:53:57.329Z,95551.00
2022-08-03T20:53:59.744Z,95552.00
2022-08-03T20:54:00.668Z,95548.00
2022-08-03T20:54:22.739Z,95549.00
2022-08-03T20:54:28.865Z,95551.00
2022-08-03T20:54:31.311Z,95550.00
2022-08-03T20:54:37.382Z,95550.00
2022-08-03T20:54:47.523Z,95551.00
2022-08-03T20:54:57.668Z,95553.00
2022-08-03T20:55:14.603Z,95555.00
2022-08-03T20:55:17.650Z,95549.00
2022-08-03T20:55:47.499Z,95552.00
2022-08-03T20:55:48.231Z,95551.00
2022-08-03T20:56:02.123Z,95550.00
2022-08-03T20:56:02.421Z,95553.00
2022-08-03T20:56:07.990Z,95551.00
2022-08-03T20:56:17.512Z,95554.00
2022-08-03T20:56:27.710Z,95552.00
2022-08-03T20:56:37.609Z,95552.00
2022-08-03T20:56:49.548Z,95550.00
2022-08-03T20:56:57.491Z,95555.00
2022-08-03T20:57:09.529Z,95552.00
2022-08-03T20:57:17.519Z,95552.00
2022-08-03T20:57:27.469Z,95553.00
2022-08-03T20:57:37.613Z,95554.00
2022-08-03T20:57:49.034Z,95551.00
2022-08-03T20:57:57.651Z,95552.00
2022-08-03T20:58:07.398Z,95554.00
2022-08-03T20:58:17.437Z,95556.00
2022-08-03T20:58:27.354Z,95553.00
2022-08-03T20:58:37.373Z,95554.00
2022-08-03T20:58:50.637Z,95554.00
2022-08-03T20:58:57.376Z,95556.00
2022-08-03T20:59:07.374Z,95554.00
2022-08-03T20:59:17.786Z,95553.00
2022-08-03T20:59:27.547Z,95553.00
2022-08-03T20:59:51.164Z,95554.00
2022-08-03T20:59:57.713Z,95556.00
2022-08-03T21:00:07.820Z,95552.00
2022-08-03T21:00:17.406Z,95551.00
2022-08-03T21:00:27.469Z,95553.00
2022-08-03T21:00:37.466Z,95553.00
2022-08-03T21:00:47.408Z,95548.00
2022-08-03T21:00:57.655Z,95553.00
2022-08-03T21:01:07.650Z,95553.00
2022-08-03T21:01:17.666Z,95553.00
2022-08-03T21:01:36.592Z,95550.00
2022-08-03T21:01:37.622Z,95554.00
2022-08-03T21:01:47.452Z,95553.00
2022-08-03T21:01:57.327Z,95551.00
2022-08-03T21:02:07.628Z,95552.00
2022-08-03T21:02:19.722Z,95552.00
2022-08-03T21:02:29.208Z,95552.00
2022-08-03T21:02:37.451Z,95554.00
2022-08-03T21:02:47.343Z,95549.00
2022-08-03T21:02:57.623Z,95552.00
2022-08-03T21:03:09.000Z,95554.00
2022-08-03T21:03:17.647Z,95552.00
2022-08-03T21:03:40.767Z,95554.00
2022-08-03T21:03:41.013Z,95550.00
2022-08-03T21:03:55.364Z,95552.00
2022-08-03T21:03:57.572Z,95553.00
2022-08-03T21:04:07.322Z,95553.00
2022-08-03T21:04:20.925Z,95552.00
2022-08-03T21:04:27.357Z,95548.00
2022-08-03T21:04:37.373Z,95551.00
2022-08-03T21:04:47.506Z,95549.00
2022-08-03T21:04:57.628Z,95550.00
2022-08-03T21:05:08.322Z,95549.00
2022-08-03T21:05:17.537Z,95550.00
2022-08-03T21:05:47.728Z,95548.00
2022-08-03T21:05:51.180Z,95551.00
2022-08-03T21:05:51.578Z,95551.00
2022-08-03T21:05:57.742Z,95549.00
2022-08-03T21:06:07.642Z,95549.00
2022-08-03T21:06:17.614Z,95549.00
2022-08-03T21:06:28.157Z,95551.00
2022-08-03T21:06:37.564Z,95550.00
2022-08-03T21:06:53.279Z,95549.00
2022-08-03T21:06:57.507Z,95547.00
2022-08-03T21:07:16.468Z,95547.00
2022-08-03T21:07:17.454Z,95546.00
2022-08-03T21:08:04.062Z,95548.00
2022-08-03T21:08:04.402Z,95547.00
2022-08-03T21:08:04.804Z,95548.00
2022-08-03T21:08:05.217Z,95550.00
2022-08-03T21:08:07.579Z,95549.00
2022-08-03T21:08:17.608Z,95551.00
2022-08-03T21:08:27.374Z,95549.00
2022-08-03T21:08:37.584Z,95548.00
2022-08-03T21:08:48.143Z,95547.00
2022-08-03T21:08:57.432Z,95548.00
2022-08-03T21:09:07.514Z,95548.00
2022-08-03T21:09:17.417Z,95548.00
2022-08-03T21:09:33.546Z,95551.00
2022-08-03T21:09:41.602Z,95549.00
2022-08-03T21:09:49.716Z,95551.00
2022-08-03T21:09:57.364Z,95547.00
2022-08-03T21:10:10.087Z,95548.00
2022-08-03T21:10:17.516Z,95548.00
2022-08-03T21:10:28.518Z,95547.00
2022-08-03T21:10:38.071Z,95551.00
2022-08-03T21:10:47.570Z,95546.00
2022-08-03T21:10:57.481Z,95549.00
2022-08-03T21:11:07.373Z,95545.00
2022-08-03T21:11:17.362Z,95548.00
2022-08-03T21:11:27.421Z,95549.00
2022-08-03T21:11:41.421Z,95548.00
2022-08-03T21:11:47.659Z,95546.00
2022-08-03T21:11:57.535Z,95545.00
2022-08-03T21:12:07.350Z,95545.00
2022-08-03T21:12:17.836Z,95545.00
2022-08-03T21:12:27.469Z,95546.00
2022-08-03T21:12:37.599Z,95547.00
2022-08-03T21:12:47.500Z,95543.00
2022-08-03T21:13:07.251Z,95553.00
2022-08-03T21:13:07.419Z,95547.00
2022-08-03T21:13:07.829Z,95554.00
2022-08-03T21:13:12.190Z,95544.00
2022-08-03T21:13:13.375Z,95555.00
2022-08-03T21:13:17.103Z,95547.00
2022-08-03T21:13:27.634Z,95545.00
2022-08-03T21:13:37.689Z,95543.00
2022-08-03T21:13:47.421Z,95542.00
2022-08-03T21:13:57.615Z,95544.00
2022-08-03T21:14:07.587Z,95544.00
2022-08-03T21:14:17.769Z,95545.00
2022-08-03T21:14:27.572Z,95543.00
2022-08-03T21:14:37.511Z,95540.00
2022-08-03T21:14:50.376Z,95544.00
2022-08-03T21:14:57.659Z,95543.00
2022-08-03T21:15:07.628Z,95542.00
2022-08-03T21:16:03.137Z,95542.00
2022-08-03T21:16:06.045Z,95543.00
2022-08-03T21:16:11.893Z,95544.00
2022-08-03T21:16:11.924Z,95545.00
2022-08-03T21:16:12.647Z,95542.00
2022-08-03T21:16:14.108Z,95541.00
2022-08-03T21:16:17.668Z,95540.00
2022-08-03T21:16:27.611Z,95543.00
2022-08-03T21:16:37.664Z,95539.00
2022-08-03T21:16:47.710Z,95541.00
2022-08-03T21:16:57.584Z,95540.00
2022-08-03T21:17:14.314Z,95541.00
2022-08-03T21:17:31.275Z,95538.00
2022-08-03T21:17:39.967Z,95539.00
2022-08-03T21:17:41.045Z,95540.00
2022-08-03T21:17:48.674Z,95538.00
2022-08-03T21:17:57.738Z,95538.00
2022-08-03T21:18:07.529Z,95538.00
2022-08-03T21:18:17.809Z,95540.00
2022-08-03T21:18:27.540Z,95541.00
2022-08-03T21:19:09.459Z,95542.00
2022-08-03T21:19:10.031Z,95542.00
2022-08-03T21:19:10.571Z,95542.00
2022-08-03T21:19:11.375Z,95539.00
2022-08-03T21:19:17.509Z,95541.00
2022-08-03T21:19:27.556Z,95542.00
2022-08-03T21:19:37.694Z,95542.00
2022-08-03T21:19:51.693Z,95544.00
2022-08-03T21:19:57.442Z,95539.00
2022-08-03T21:20:07.354Z,95540.00
2022-08-03T21:20:17.625Z,95541.00
2022-08-03T21:20:27.879Z,95545.00
2022-08-03T21:20:37.379Z,95543.00
2022-08-03T21:20:47.582Z,95544.00
2022-08-03T21:20:57.636Z,95548.00
2022-08-03T21:21:07.591Z,95542.00
2022-08-03T21:21:17.648Z,95542.00
2022-08-03T21:21:27.525Z,95542.00
2022-08-03T21:21:37.659Z,95541.00
2022-08-03T21:21:47.371Z,95542.00
2022-08-03T21:21:57.400Z,95542.00
2022-08-03T21:22:07.333Z,95541.00
2022-08-03T21:22:17.340Z,95545.00
2022-08-03T21:22:27.408Z,95545.00
2022-08-03T21:22:37.437Z,95541.00
2022-08-03T21:22:47.585Z,95546.00
2022-08-03T21:22:57.443Z,95543.00
2022-08-03T21:23:07.409Z,95544.00
2022-08-03T21:23:39.846Z,95541.00
2022-08-03T21:23:39.951Z,95544.00
2022-08-03T21:23:47.523Z,95544.00
2022-08-03T21:23:49.383Z,95544.00
2022-08-03T21:23:57.420Z,95542.00
2022-08-03T21:24:07.383Z,95543.00
2022-08-03T21:24:17.691Z,95542.00
2022-08-03T21:24:27.369Z,95545.00
2022-08-03T21:24:37.463Z,95543.00
2022-08-03T21:24:50.342Z,95544.00
2022-08-03T21:24:57.320Z,95542.00
2022-08-03T21:25:07.629Z,95541.00
2022-08-03T21:25:17.455Z,95543.00
2022-08-03T21:25:27.770Z,95544.00
2022-08-03T21:25:37.816Z,95541.00
2022-08-03T21:25:47.756Z,95543.00
2022-08-03T21:25:57.650Z,95544.00
2022-08-03T21:26:07.526Z,95546.00
2022-08-03T21:26:17.364Z,95542.00
2022-08-03T21:26:27.485Z,95544.00
2022-08-03T21:26:39.224Z,95546.00
2022-08-03T21:26:47.496Z,95544.00
2022-08-03T21:26:57.700Z,95543.00
2022-08-03T21:27:07.577Z,95540.00
2022-08-03T21:27:17.340Z,95545.00
2022-08-03T21:27:27.399Z,95544.00
2022-08-03T21:27:37.630Z,95546.00
2022-08-03T21:27:47.356Z,95545.00
2022-08-03T21:27:57.346Z,95548.00
2022-08-03T21:28:07.548Z,95547.00
2022-08-03T21:28:18.906Z,95545.00
2022-08-03T21:28:27.762Z,95542.00
2022-08-03T21:28:37.588Z,95544.00
2022-08-03T21:28:47.617Z,95546.00
2022-08-03T21:28:57.504Z,95541.00
2022-08-03T21:29:07.397Z,95545.00
2022-08-03T21:29:17.470Z,95544.00
2022-08-03T21:29:27.417Z,95548.00
2022-08-03T21:29:37.418Z,95545.00
2022-08-03T21:29:52.944Z,95542.00
2022-08-03T21:29:57.611Z,95546.00
2022-08-03T21:30:07.374Z,95546.00
2022-08-03T21:30:17.432Z,95548.00
2022-08-03T21:30:27.624Z,95546.00
2022-08-03T21:30:37.556Z,95541.00
2022-08-03T21:30:47.496Z,95544.00
2022-08-03T21:30:57.484Z,95542.00
2022-08-03T21:31:07.561Z,95542.00
2022-08-03T21:31:23.718Z,95544.00
2022-08-03T21:31:27.530Z,95544.00
2022-08-03T21:31:37.536Z,95545.00
2022-08-03T21:31:47.475Z,95549.00
2022-08-03T21:31:57.506Z,95546.00
2022-08-03T21:32:07.351Z,95546.00
2022-08-03T21:32:19.351Z,95542.00
2022-08-03T21:32:33.038Z,95544.00
2022-08-03T21:32:37.460Z,95544.00
2022-08-03T21:32:47.585Z,95543.00
2022-08-03T21:32:57.549Z,95543.00
2022-08-03T21:33:07.703Z,95541.00
2022-08-03T21:33:18.005Z,95543.00
2022-08-03T21:33:27.362Z,95542.00
2022-08-03T21:33:37.358Z,95539.00
2022-08-03T21:33:47.697Z,95541.00
2022-08-03T21:33:57.388Z,95543.00
2022-08-03T21:34:07.507Z,95540.00
2022-08-03T21:34:17.482Z,95541.00
2022-08-03T21:34:27.359Z,95539.00
2022-08-03T21:34:37.369Z,95540.00
2022-08-03T21:34:47.529Z,95539.00
2022-08-03T21:34:57.592Z,95544.00
2022-08-03T21:35:07.488Z,95539.00
2022-08-03T21:35:17.653Z,95541.00
2022-08-03T21:35:27.323Z,95542.00
2022-08-03T21:35:37.569Z,95540.00
2022-08-03T21:35:47.322Z,95539.00
2022-08-03T21:35:57.632Z,95538.00
2022-08-03T21:36:07.536Z,95536.00
2022-08-03T21:36:17.611Z,95539.00
2022-08-03T21:36:27.547Z,95540.00
2022-08-03T21:36:37.351Z,95540.00
2022-08-03T21:36:47.379Z,95540.00
2022-08-03T21:36:57.675Z,95537.00
2022-08-03T21:37:07.508Z,95535.00
2022-08-03T21:37:17.490Z,95537.00
2022-08-03T21:37:27.480Z,95537.00
2022-08-03T21:37:37.451Z,95539.00
2022-08-03T21:37:47.312Z,95535.00
2022-08-03T21:37:57.497Z,95538.00
2022-08-03T21:38:07.622Z,95533.00
2022-08-03T21:38:17.333Z,95540.00
2022-08-03T21:38:29.949Z,95535.00
2022-08-03T21:38:37.498Z,95538.00
2022-08-03T21:38:56.348Z,95536.00
2022-08-03T21:38:57.908Z,95534.00
2022-08-03T21:39:07.663Z,95534.00
2022-08-03T21:39:17.722Z,95535.00
2022-08-03T21:39:27.501Z,95537.00
2022-08-03T21:39:37.491Z,95538.00
2022-08-03T21:39:50.993Z,95536.00
2022-08-03T21:39:57.750Z,95534.00
2022-08-03T21:40:07.663Z,95535.00
2022-08-03T21:40:17.362Z,95531.00
2022-08-03T21:40:27.589Z,95536.00
2022-08-03T21:40:37.577Z,95537.00
2022-08-03T21:40:47.337Z,95534.00
2022-08-03T21:40:57.484Z,95536.00
2022-08-03T21:41:07.545Z,95534.00
2022-08-03T21:41:17.535Z,95535.00
2022-08-03T21:41:27.784Z,95540.00
2022-08-03T21:41:37.479Z,95535.00
2022-08-03T21:41:47.467Z,95535.00
2022-08-03T21:41:57.657Z,95532.00
2022-08-03T21:42:07.524Z,95532.00
2022-08-03T21:42:17.449Z,95537.00
2022-08-03T21:42:27.523Z,95531.00
2022-08-03T21:42:37.488Z,95534.00
2022-08-03T21:42:47.388Z,95536.00
2022-08-03T21:42:57.601Z,95534.00
2022-08-03T21:43:07.636Z,95532.00
2022-08-03T21:43:17.346Z,95534.00
2022-08-03T21:43:27.703Z,95532.00
2022-08-03T21:43:37.517Z,95533.00
2022-08-03T21:43:47.521Z,95536.00
2022-08-03T21:44:29.323Z,95533.00
2022-08-03T21:44:29.689Z,95537.00
2022-08-03T21:44:30.132Z,95537.00
2022-08-03T21:44:30.500Z,95535.00
2022-08-03T21:44:37.766Z,95532.00
2022-08-03T21:44:47.414Z,95534.00
2022-08-03T21:44:57.520Z,95535.00
2022-08-03T21:45:07.331Z,95533.00
2022-08-03T21:45:17.964Z,95534.00
2022-08-03T21:45:27.368Z,95535.00
2022-08-03T21:45:37.323Z,95531.00
2022-08-03T21:45:47.319Z,95533.00
2022-08-03T21:45:57.333Z,95536.00
2022-08-03T21:46:42.641Z,95536.00
2022-08-03T21:46:43.025Z,95534.00
2022-08-03T21:46:43.479Z,95533.00
2022-08-03T21:46:43.840Z,95534.00
2022-08-03T21:46:47.476Z,95534.00
2022-08-03T21:46:57.632Z,95535.00
2022-08-03T21:47:07.434Z,95534.00
2022-08-03T21:47:17.375Z,95532.00
2022-08-03T21:47:27.360Z,95537.00
2022-08-03T21:47:37.866Z,95533.00
2022-08-03T21:47:47.351Z,95534.00
2022-08-03T21:47:57.655Z,95533.00
2022-08-03T21:48:07.531Z,95533.00
2022-08-03T21:48:17.756Z,95534.00
2022-08-03T21:48:27.488Z,95535.00
2022-08-03T21:48:37.319Z,95532.00
2022-08-03T21:48:47.537Z,95529.00
2022-08-03T21:50:04.389Z,95532.00
2022-08-03T21:50:05.316Z,95532.00
2022-08-03T21:50:06.133Z,95533.00
2022-08-03T21:50:06.538Z,95532.00
2022-08-03T21:50:08.742Z,95531.00
2022-08-03T21:50:09.477Z,95531.00
2022-08-03T21:50:10.087Z,95531.00
2022-08-03T21:50:10.583Z,95533.00
2022-08-03T21:50:17.420Z,95530.00
2022-08-03T21:50:27.602Z,95531.00
2022-08-03T21:50:37.347Z,95533.00
2022-08-03T21:51:24.719Z,95529.00
2022-08-03T21:51:25.367Z,95526.00
2022-08-03T21:51:25.749Z,95527.00
2022-08-03T21:51:26.303Z,95528.00
2022-08-03T21:51:27.591Z,95530.00
2022-08-03T21:51:38.029Z,95530.00
2022-08-03T21:52:22.422Z,95532.00
2022-08-03T21:52:23.340Z,95532.00
2022-08-03T21:52:23.959Z,95530.00
2022-08-03T21:52:24.671Z,95532.00
2022-08-03T21:52:27.366Z,95530.00
2022-08-03T21:52:37.579Z,95530.00
2022-08-03T21:52:48.108Z,95530.00
2022-08-03T21:52:57.569Z,95533.00
2022-08-03T21:53:07.488Z,95529.00
2022-08-03T21:53:17.656Z,95530.00
2022-08-03T21:53:28.074Z,95530.00
2022-08-03T21:54:02.676Z,95534.00
2022-08-03T21:54:03.380Z,95535.00
2022-08-03T21:54:03.731Z,95529.00
2022-08-03T21:54:07.547Z,95530.00
2022-08-03T21:54:17.812Z,95530.00
2022-08-03T21:54:27.592Z,95529.00
2022-08-03T21:54:37.485Z,95530.00
2022-08-03T21:54:47.500Z,95526.00
2022-08-03T21:54:57.583Z,95528.00
2022-08-03T21:55:07.568Z,95531.00
2022-08-03T21:55:18.671Z,95530.00
2022-08-03T21:55:27.543Z,95530.00
2022-08-03T21:55:37.374Z,95533.00
2022-08-03T21:55:47.535Z,95530.00
2022-08-03T21:55:57.617Z,95532.00
2022-08-03T21:56:07.562Z,95530.00
2022-08-03T21:56:17.560Z,95530.00
2022-08-03T21:56:27.477Z,95528.00
2022-08-03T21:56:37.584Z,95531.00
2022-08-03T21:56:47.702Z,95531.00
2022-08-03T21:56:57.534Z,95526.00
2022-08-03T21:57:07.973Z,95530.00
2022-08-03T21:57:17.333Z,95530.00
2022-08-03T21:57:27.591Z,95530.00
2022-08-03T21:57:37.696Z,95528.00
2022-08-03T21:57:47.527Z,95532.00
2022-08-03T21:57:57.696Z,95526.00
2022-08-03T21:58:07.679Z,95530.00
2022-08-03T21:58:29.494Z,95529.00
2022-08-03T21:58:30.232Z,95531.00
2022-08-03T21:58:37.478Z,95530.00
2022-08-03T21:58:47.509Z,95532.00
2022-08-03T21:58:57.785Z,95531.00
2022-08-03T21:59:07.622Z,95529.00
2022-08-03T21:59:17.524Z,95532.00
2022-08-03T21:59:27.620Z,95532.00
2022-08-03T21:59:37.587Z,95530.00
2022-08-03T21:59:47.763Z,95531.00
2022-08-03T21:59:57.646Z,95529.00
2022-08-03T22:00:07.457Z,95530.00
2022-08-03T22:00:17.780Z,95530.00
2022-08-03T22:00:27.687Z,95531.00
2022-08-03T22:00:38.250Z,95530.00
2022-08-03T22:00:47.585Z,95530.00
2022-08-03T22:00:57.404Z,95534.00
2022-08-03T22:01:07.606Z,95536.00
2022-08-03T22:01:17.370Z,95529.00
2022-08-03T22:01:27.927Z,95534.00
2022-08-03T22:01:37.607Z,95534.00
2022-08-03T22:01:48.925Z,95539.00
2022-08-03T22:01:58.519Z,95534.00
2022-08-03T22:02:11.463Z,95535.00
2022-08-03T22:02:24.266Z,95535.00
2022-08-03T22:02:27.826Z,95533.00
2022-08-03T22:02:37.614Z,95536.00
2022-08-03T22:02:53.174Z,95531.00
2022-08-03T22:02:57.631Z,95533.00
2022-08-03T22:03:17.362Z,95538.00
2022-08-03T22:03:17.923Z,95537.00
2022-08-03T22:03:27.600Z,95538.00
2022-08-03T22:03:51.165Z,95536.00
2022-08-03T22:03:52.863Z,95539.00
2022-08-03T22:03:58.510Z,95534.00
2022-08-03T22:04:07.589Z,95533.00
2022-08-03T22:04:50.177Z,95536.00
2022-08-03T22:04:53.422Z,95534.00
2022-08-03T22:04:53.885Z,95536.00
2022-08-03T22:04:55.047Z,95534.00
2022-08-03T22:04:58.170Z,95536.00
2022-08-03T22:05:07.669Z,95536.00
2022-08-03T22:05:17.525Z,95536.00
2022-08-03T22:05:42.742Z,95534.00
2022-08-03T22:05:43.506Z,95535.00
2022-08-03T22:05:47.722Z,95536.00
2022-08-03T22:06:04.939Z,95529.00
2022-08-03T22:06:07.378Z,95537.00
2022-08-03T22:06:19.555Z,95535.00
2022-08-03T22:06:27.741Z,95535.00
2022-08-03T22:06:37.435Z,95536.00
2022-08-03T22:06:47.517Z,95538.00
2022-08-03T22:06:57.629Z,95529.00
2022-08-03T22:07:07.405Z,95536.00
2022-08-03T22:07:17.467Z,95533.00
2022-08-03T22:07:27.913Z,95536.00
2022-08-03T22:07:37.600Z,95535.00
2022-08-03T22:07:47.546Z,95533.00
2022-08-03T22:07:57.425Z,95535.00
2022-08-03T22:08:07.616Z,95533.00
2022-08-03T22:08:17.542Z,95534.00
2022-08-03T22:08:27.745Z,95532.00
2022-08-03T22:08:37.425Z,95525.00
2022-08-03T22:08:47.446Z,95531.00
2022-08-03T22:08:57.700Z,95530.00
2022-08-03T22:09:07.860Z,95530.00
2022-08-03T22:09:17.755Z,95538.00
2022-08-03T22:09:27.855Z,95537.00
2022-08-03T22:09:37.615Z,95536.00
2022-08-03T22:09:51.192Z,95536.00
2022-08-03T22:09:57.883Z,95538.00
2022-08-03T22:10:08.015Z,95532.00
2022-08-03T22:10:17.810Z,95538.00
2022-08-03T22:10:27.418Z,95540.00
2022-08-03T22:10:37.824Z,95536.00
2022-08-03T22:10:47.414Z,95536.00
2022-08-03T22:10:57.861Z,95536.00
2022-08-03T22:11:07.573Z,95538.00
2022-08-03T22:11:17.471Z,95537.00
2022-08-03T22:11:31.605Z,95536.00
2022-08-03T22:11:37.342Z,95534.00
2022-08-03T22:11:47.324Z,95538.00
2022-08-03T22:11:57.498Z,95538.00
2022-08-03T22:12:07.560Z,95533.00
2022-08-03T22:12:17.621Z,95536.00
2022-08-03T22:12:27.595Z,95533.00
2022-08-03T22:12:37.619Z,95537.00
2022-08-03T22:12:47.388Z,95538.00
2022-08-03T22:12:57.526Z,95534.00
2022-08-03T22:13:07.642Z,95535.00
2022-08-03T22:13:43.043Z,95536.00
2022-08-03T22:13:43.565Z,95535.00
2022-08-03T22:13:44.198Z,95537.00
2022-08-03T22:13:47.414Z,95538.00
2022-08-03T22:13:57.450Z,95538.00
2022-08-03T22:14:07.631Z,95539.00
2022-08-03T22:14:17.343Z,95534.00
2022-08-03T22:14:27.365Z,95538.00
2022-08-03T22:14:37.405Z,95538.00
2022-08-03T22:14:47.589Z,95536.00
2022-08-03T22:15:00.500Z,95534.00
2022-08-03T22:15:07.597Z,95537.00
2022-08-03T22:15:17.551Z,95535.00
2022-08-03T22:15:27.683Z,95534.00
2022-08-03T22:15:37.431Z,95537.00
2022-08-03T22:15:47.416Z,95538.00
2022-08-03T22:15:57.661Z,95534.00
2022-08-03T22:16:07.644Z,95537.00
2022-08-03T22:16:17.607Z,95537.00
2022-08-03T22:16:27.421Z,95539.00
2022-08-03T22:16:37.657Z,95540.00
2022-08-03T22:16:47.587Z,95534.00
2022-08-03T22:16:57.938Z,95537.00
2022-08-03T22:17:07.498Z,95535.00
2022-08-03T22:17:23.087Z,95536.00
2022-08-03T22:17:54.729Z,95539.00
2022-08-03T22:17:55.007Z,95536.00
2022-08-03T22:17:55.959Z,95537.00
2022-08-03T22:17:57.567Z,95537.00
2022-08-03T22:18:07.379Z,95535.00
2022-08-03T22:18:17.705Z,95535.00
2022-08-03T22:18:27.523Z,95537.00
2022-08-03T22:18:37.416Z,95534.00
2022-08-03T22:18:47.720Z,95536.00
2022-08-03T22:18:57.332Z,95539.00
2022-08-03T22:19:07.472Z,95537.00
2022-08-03T22:19:17.638Z,95537.00
2022-08-03T22:19:27.599Z,95535.00
2022-08-03T22:19:37.703Z,95536.00
2022-08-03T22:19:47.414Z,95537.00
2022-08-03T22:19:57.437Z,95538.00
2022-08-03T22:20:07.488Z,95539.00
2022-08-03T22:20:17.497Z,95541.00